METAR Data
IDs: Format: Raw Decoded Include TAF

Data at: 1227 UTC 22 Jan 2022

METAR for:KDLS (The Dalles Muni, OR, US)
Text:KDLS 221153Z AUTO 00000KT 10SM OVC011 03/M01 A3054 RMK AO2 SLP345 T00281006 10039 20011 55002
Temperature: 2.8°C ( 37°F)
Dewpoint: -0.6°C ( 31°F) [RH = 78%]
Pressure (altimeter):30.54 inches Hg (1034.3 mb) [Sea level pressure: 1034.5 mb]
Winds:calm
Visibility:10 or more sm (16+ km)
Ceiling:1100 feet AGL
Clouds: overcast cloud deck at 1100 feet AGL
QC Flag:automated observation with no human augmentation